Time;durP1;ratioP1;P1;durP2;ratioP2;P2;SDS_P1;SDS_P2;PMS_P1;PMS_P2;Temp;Humidity;BMP_temperature;BMP_pressure;BME280_temperature;BME280_humidity;BME280_pressure;Samples;Min_cycle;Max_cycle;Signal;HPM_P1;HPM_P2
2021/10/17 00:02:17;;;;;;;8.23;2.50;;;;;;;;;;4954211;28;20034;-75
2021/10/17 00:04:43;;;;;;;13.30;3.58;;;;;;;;;;4971674;28;20034;-74
2021/10/17 00:07:10;;;;;;;9.13;3.17;;;;;;;;;;4970313;28;20038;-74
2021/10/17 00:09:37;;;;;;;7.65;2.30;;;;;;;;;;4970891;28;20047;-75
2021/10/17 00:12:04;;;;;;;8.32;3.67;;;;;;;;;;4964135;28;20105;-75
2021/10/17 00:14:30;;;;;;;7.75;2.97;;;;;;;;;;4953752;28;20027;-74
2021/10/17 00:16:56;;;;;;;10.98;3.17;;;;;;;;;;4971378;28;20033;-74
2021/10/17 00:19:22;;;;;;;10.73;2.47;;;;;;;;;;4966521;28;20019;-74
2021/10/17 00:21:48;;;;;;;9.80;2.65;;;;;;;;;;4969481;28;20035;-74
2021/10/17 00:24:14;;;;;;;13.15;3.10;;;;;;;;;;4952572;28;20029;-75
2021/10/17 00:26:40;;;;;;;9.88;3.92;;;;;;;;;;4971322;28;20043;-74
2021/10/17 00:29:06;;;;;;;14.57;4.70;;;;;;;;;;4961666;28;20031;-74
2021/10/17 00:31:32;;;;;;;15.85;4.03;;;;;;;;;;4964795;28;20639;-74
2021/10/17 00:33:58;;;;;;;11.80;3.20;;;;;;;;;;4969493;28;20115;-74
2021/10/17 00:36:27;;;;;;;13.10;2.97;;;;;;;;;;4952898;28;20037;-76
2021/10/17 00:38:53;;;;;;;8.15;3.00;;;;;;;;;;4963815;28;20807;-74
2021/10/17 00:41:19;;;;;;;6.85;2.72;;;;;;;;;;4971293;28;20380;-75
2021/10/17 00:43:45;;;;;;;12.38;3.60;;;;;;;;;;4960209;28;20027;-74
2021/10/17 00:46:18;;;;;;;9.48;2.63;;;;;;;;;;4970610;28;20381;-75
2021/10/17 00:48:44;;;;;;;10.63;3.58;;;;;;;;;;4967476;28;20041;-74
2021/10/17 00:51:10;;;;;;;10.88;3.60;;;;;;;;;;4969533;28;20118;-75
2021/10/17 00:53:37;;;;;;;11.07;3.05;;;;;;;;;;4970107;28;20023;-75
2021/10/17 00:56:02;;;;;;;8.77;3.50;;;;;;;;;;4971747;28;20408;-75
2021/10/17 00:58:29;;;;;;;11.00;2.50;;;;;;;;;;4970263;28;20114;-74
2021/10/17 01:00:55;;;;;;;6.72;2.95;;;;;;;;;;4965876;28;20031;-74
2021/10/17 01:03:21;;;;;;;11.27;3.10;;;;;;;;;;4960088;28;20022;-75
2021/10/17 01:05:48;;;;;;;10.82;3.50;;;;;;;;;;4941738;28;20027;-75
2021/10/17 01:08:14;;;;;;;11.10;3.25;;;;;;;;;;4969496;28;20487;-74
2021/10/17 01:10:40;;;;;;;16.85;3.20;;;;;;;;;;4950283;28;20060;-74
2021/10/17 01:13:06;;;;;;;12.98;3.80;;;;;;;;;;4947354;28;20082;-74
2021/10/17 01:15:32;;;;;;;10.45;3.55;;;;;;;;;;4969458;28;20030;-75
2021/10/17 01:17:57;;;;;;;12.57;3.65;;;;;;;;;;4973312;28;20037;-75
2021/10/17 01:20:24;;;;;;;8.73;3.50;;;;;;;;;;4974007;28;20073;-74
2021/10/17 01:22:50;;;;;;;12.85;3.22;;;;;;;;;;4974632;28;20484;-75
2021/10/17 01:25:16;;;;;;;7.65;3.75;;;;;;;;;;4957205;28;20035;-74
2021/10/17 01:27:42;;;;;;;10.10;3.30;;;;;;;;;;4973931;28;20027;-74
2021/10/17 01:30:09;;;;;;;17.48;4.32;;;;;;;;;;4960398;28;20034;-75
2021/10/17 01:32:35;;;;;;;10.35;3.80;;;;;;;;;;4974444;28;20081;-75
2021/10/17 01:35:01;;;;;;;6.40;3.50;;;;;;;;;;4961561;28;20432;-74
2021/10/17 01:37:28;;;;;;;11.90;3.60;;;;;;;;;;4971504;28;20073;-76
2021/10/17 01:39:54;;;;;;;11.13;3.95;;;;;;;;;;4968916;28;20106;-75
2021/10/17 01:42:20;;;;;;;10.45;3.47;;;;;;;;;;4966868;28;20127;-75
2021/10/17 01:44:46;;;;;;;8.65;4.93;;;;;;;;;;4956679;28;20035;-75
2021/10/17 01:47:11;;;;;;;17.88;5.25;;;;;;;;;;4973296;28;20027;-74
2021/10/17 01:49:37;;;;;;;8.68;3.72;;;;;;;;;;4961935;28;20030;-73
2021/10/17 01:52:07;;;;;;;10.60;3.10;;;;;;;;;;4972876;28;20031;-75
2021/10/17 01:54:33;;;;;;;10.02;4.43;;;;;;;;;;4971888;28;20469;-73
2021/10/17 01:56:59;;;;;;;15.93;4.38;;;;;;;;;;4965785;28;20025;-75
2021/10/17 01:59:25;;;;;;;17.20;5.47;;;;;;;;;;4973327;28;20416;-74
2021/10/17 02:01:51;;;;;;;8.82;3.15;;;;;;;;;;4970714;28;20038;-75
2021/10/17 02:04:17;;;;;;;11.48;4.57;;;;;;;;;;4973503;28;20031;-74
2021/10/17 02:06:43;;;;;;;11.57;4.00;;;;;;;;;;4974290;28;20062;-75
2021/10/17 02:09:10;;;;;;;9.65;3.60;;;;;;;;;;4972500;28;20038;-75
2021/10/17 02:11:35;;;;;;;10.05;4.38;;;;;;;;;;4969473;28;20021;-74
2021/10/17 02:14:02;;;;;;;10.60;4.32;;;;;;;;;;4973814;28;20455;-75
2021/10/17 02:16:28;;;;;;;8.27;3.13;;;;;;;;;;4968415;28;20042;-74
2021/10/17 02:18:53;;;;;;;12.57;3.90;;;;;;;;;;4965357;28;20023;-74
2021/10/17 02:21:19;;;;;;;10.30;3.30;;;;;;;;;;4965651;28;20039;-75
2021/10/17 02:23:45;;;;;;;12.48;3.50;;;;;;;;;;4973207;28;20023;-74
2021/10/17 02:26:11;;;;;;;11.43;3.38;;;;;;;;;;4973705;28;20103;-74
2021/10/17 02:28:37;;;;;;;10.15;3.78;;;;;;;;;;4970834;28;20026;-75
2021/10/17 02:31:03;;;;;;;9.70;3.38;;;;;;;;;;4967668;28;20446;-76
2021/10/17 02:33:29;;;;;;;12.20;4.15;;;;;;;;;;4972833;28;20037;-74
2021/10/17 02:35:55;;;;;;;11.68;4.78;;;;;;;;;;4963552;28;20097;-75
2021/10/17 02:38:21;;;;;;;9.43;4.57;;;;;;;;;;4970006;28;20027;-75
2021/10/17 02:40:47;;;;;;;11.20;3.80;;;;;;;;;;4972648;28;20027;-74
2021/10/17 02:43:13;;;;;;;12.02;3.40;;;;;;;;;;4965733;28;20058;-74
2021/10/17 02:45:39;;;;;;;12.63;4.63;;;;;;;;;;4971007;28;20022;-75
2021/10/17 02:48:05;;;;;;;9.25;3.30;;;;;;;;;;4964309;28;20031;-74
2021/10/17 02:50:31;;;;;;;15.60;4.50;;;;;;;;;;4969248;28;20084;-75
2021/10/17 02:52:57;;;;;;;9.73;3.45;;;;;;;;;;4943893;28;20037;-75
2021/10/17 02:55:23;;;;;;;9.02;3.47;;;;;;;;;;4969916;28;20388;-75
2021/10/17 02:57:49;;;;;;;14.77;4.20;;;;;;;;;;4966510;28;20081;-75
2021/10/17 03:00:17;;;;;;;11.07;4.55;;;;;;;;;;4955219;28;20018;-74
2021/10/17 03:02:43;;;;;;;12.02;4.32;;;;;;;;;;4970883;28;20018;-74
2021/10/17 03:05:09;;;;;;;13.55;4.82;;;;;;;;;;4968180;28;20037;-74
2021/10/17 03:07:35;;;;;;;16.17;3.88;;;;;;;;;;4970454;28;20031;-75
2021/10/17 03:10:01;;;;;;;11.82;5.80;;;;;;;;;;4961182;28;20101;-75
2021/10/17 03:12:27;;;;;;;11.98;4.22;;;;;;;;;;4963306;28;20267;-75
2021/10/17 03:14:53;;;;;;;11.32;3.30;;;;;;;;;;4961488;28;20073;-76
2021/10/17 03:17:19;;;;;;;12.80;4.05;;;;;;;;;;4964352;28;20081;-74
2021/10/17 03:19:45;;;;;;;12.10;3.80;;;;;;;;;;4954742;28;20330;-74
2021/10/17 03:22:11;;;;;;;11.52;3.75;;;;;;;;;;4954703;28;20022;-74
2021/10/17 03:24:37;;;;;;;9.95;3.92;;;;;;;;;;4972250;28;20029;-74
2021/10/17 03:27:03;;;;;;;12.93;4.40;;;;;;;;;;4972821;28;20081;-75
2021/10/17 03:29:28;;;;;;;10.35;4.47;;;;;;;;;;4960802;28;20031;-74
2021/10/17 03:31:54;;;;;;;10.48;3.83;;;;;;;;;;4969309;28;20041;-75
2021/10/17 03:34:20;;;;;;;11.32;3.35;;;;;;;;;;4995513;23;20031;-71
2021/10/17 03:36:46;;;;;;;10.48;3.83;;;;;;;;;;5009116;28;20034;-70
2021/10/17 03:39:12;;;;;;;13.90;3.67;;;;;;;;;;4998856;28;20417;-71
2021/10/17 03:41:38;;;;;;;12.15;4.18;;;;;;;;;;5002231;28;20101;-71
2021/10/17 03:44:04;;;;;;;10.57;3.38;;;;;;;;;;4991258;28;20164;-70
2021/10/17 03:46:30;;;;;;;10.88;4.63;;;;;;;;;;5009121;28;20430;-71
2021/10/17 03:48:56;;;;;;;15.73;4.35;;;;;;;;;;4994478;28;20124;-70
2021/10/17 03:51:22;;;;;;;13.45;3.97;;;;;;;;;;5001174;28;20037;-71
2021/10/17 03:53:48;;;;;;;13.07;4.28;;;;;;;;;;4981720;28;20026;-70
2021/10/17 03:56:14;;;;;;;13.63;4.75;;;;;;;;;;5009475;28;20072;-70
2021/10/17 03:58:40;;;;;;;12.05;5.35;;;;;;;;;;5000093;28;20037;-71
2021/10/17 04:01:06;;;;;;;11.98;4.68;;;;;;;;;;5007790;28;20026;-70
2021/10/17 04:03:32;;;;;;;12.73;4.22;;;;;;;;;;5001986;28;20018;-70
2021/10/17 04:05:58;;;;;;;9.80;3.90;;;;;;;;;;4993074;28;20121;-70
2021/10/17 04:08:24;;;;;;;19.13;4.75;;;;;;;;;;5009026;28;20463;-70
2021/10/17 04:10:50;;;;;;;13.68;5.63;;;;;;;;;;4993183;28;20022;-70
2021/10/17 04:13:15;;;;;;;10.50;4.40;;;;;;;;;;4980590;28;20033;-70
2021/10/17 04:15:41;;;;;;;12.73;4.70;;;;;;;;;;4979690;28;20030;-70
2021/10/17 04:18:07;;;;;;;14.55;5.05;;;;;;;;;;4984676;28;20101;-70
2021/10/17 04:20:33;;;;;;;19.98;5.28;;;;;;;;;;5001731;28;20034;-71
2021/10/17 04:23:00;;;;;;;16.83;5.13;;;;;;;;;;4989630;28;20123;-70
2021/10/17 04:25:26;;;;;;;16.13;4.68;;;;;;;;;;4992363;28;20034;-70
2021/10/17 04:27:52;;;;;;;10.45;4.72;;;;;;;;;;5010194;28;20022;-71
2021/10/17 04:30:18;;;;;;;14.77;5.47;;;;;;;;;;5005836;28;20030;-70
2021/10/17 04:32:44;;;;;;;14.45;5.13;;;;;;;;;;5007366;28;20030;-70
2021/10/17 04:35:10;;;;;;;15.60;5.90;;;;;;;;;;4996030;28;20061;-71
2021/10/17 04:37:36;;;;;;;15.25;5.00;;;;;;;;;;4995438;28;20026;-71
2021/10/17 04:40:07;;;;;;;15.38;5.75;;;;;;;;;;4989370;28;20023;-71
2021/10/17 04:42:32;;;;;;;;;;;;;;;;;;4990483;28;20116;-73
2021/10/17 04:45:02;;;;;;;24.45;6.47;;;;;;;;;;5005526;28;19988;-72
2021/10/17 04:47:28;;;;;;;13.80;5.78;;;;;;;;;;4986051;28;20577;-71
2021/10/17 04:49:54;;;;;;;14.13;5.63;;;;;;;;;;5004504;28;20494;-70
2021/10/17 04:52:20;;;;;;;16.92;7.07;;;;;;;;;;5003281;28;20097;-70
2021/10/17 04:54:46;;;;;;;20.88;7.80;;;;;;;;;;5002908;28;20036;-71
2021/10/17 04:57:12;;;;;;;28.77;8.07;;;;;;;;;;4994903;28;20075;-70
2021/10/17 04:59:38;;;;;;;20.10;6.53;;;;;;;;;;5007436;28;20021;-70
2021/10/17 05:02:07;;;;;;;18.02;7.10;;;;;;;;;;5014147;28;20025;-70
2021/10/17 05:04:35;;;;;;;14.20;5.70;;;;;;;;;;5007220;28;20018;-70
2021/10/17 05:07:01;;;;;;;16.02;6.05;;;;;;;;;;4993323;28;20030;-70
2021/10/17 05:09:27;;;;;;;17.83;5.72;;;;;;;;;;5008467;28;20029;-71
2021/10/17 05:11:52;;;;;;;15.25;6.53;;;;;;;;;;4986091;28;20496;-70
2021/10/17 05:14:18;;;;;;;13.05;5.60;;;;;;;;;;4998894;28;20125;-70
2021/10/17 05:16:44;;;;;;;17.15;5.63;;;;;;;;;;5005181;28;20061;-70
2021/10/17 05:19:10;;;;;;;14.20;6.22;;;;;;;;;;5012482;28;20026;-70
2021/10/17 05:21:36;;;;;;;17.55;5.93;;;;;;;;;;4998429;28;20041;-70
2021/10/17 05:24:02;;;;;;;23.20;6.50;;;;;;;;;;5003171;28;20026;-70
2021/10/17 05:26:28;;;;;;;12.50;5.95;;;;;;;;;;5005767;28;20580;-71
2021/10/17 05:28:54;;;;;;;15.82;5.53;;;;;;;;;;4987229;28;20034;-71
2021/10/17 05:31:20;;;;;;;11.68;5.30;;;;;;;;;;5014057;28;20037;-70
2021/10/17 05:33:46;;;;;;;14.07;5.90;;;;;;;;;;4999655;28;20487;-70
2021/10/17 05:36:12;;;;;;;17.92;6.05;;;;;;;;;;4996706;28;20080;-71
2021/10/17 05:38:39;;;;;;;15.32;6.00;;;;;;;;;;5001035;28;20034;-70
2021/10/17 05:41:05;;;;;;;17.33;5.60;;;;;;;;;;4995938;28;20030;-70
2021/10/17 05:43:33;;;;;;;14.77;5.95;;;;;;;;;;5001661;28;20027;-70
2021/10/17 05:45:59;;;;;;;13.48;5.55;;;;;;;;;;5002422;28;20494;-71
2021/10/17 05:48:25;;;;;;;16.50;5.72;;;;;;;;;;4995352;28;20033;-70
2021/10/17 05:50:51;;;;;;;12.38;4.65;;;;;;;;;;5012856;28;20030;-70
2021/10/17 05:53:16;;;;;;;14.40;5.65;;;;;;;;;;5007974;28;20113;-70
2021/10/17 05:55:42;;;;;;;17.30;6.63;;;;;;;;;;5001993;28;20114;-70
2021/10/17 05:58:08;;;;;;;15.10;4.95;;;;;;;;;;5012975;28;20038;-70
2021/10/17 06:00:34;;;;;;;14.52;6.07;;;;;;;;;;4992180;28;20035;-70
2021/10/17 06:03:00;;;;;;;15.23;5.55;;;;;;;;;;5001174;28;20068;-70
2021/10/17 06:05:27;;;;;;;15.65;6.05;;;;;;;;;;5002147;28;20555;-70
2021/10/17 06:07:53;;;;;;;17.67;4.88;;;;;;;;;;5000674;28;20034;-70
2021/10/17 06:10:19;;;;;;;13.73;5.00;;;;;;;;;;4995008;28;20030;-70
2021/10/17 06:12:45;;;;;;;18.50;5.20;;;;;;;;;;5001494;28;20030;-70
2021/10/17 06:15:11;;;;;;;13.30;4.97;;;;;;;;;;5000324;28;20499;-70
2021/10/17 06:17:37;;;;;;;15.95;5.50;;;;;;;;;;4992304;28;20019;-70
2021/10/17 06:20:06;;;;;;;13.25;5.15;;;;;;;;;;5006105;28;20058;-70
2021/10/17 06:22:32;;;;;;;17.92;5.75;;;;;;;;;;4997018;28;20382;-71
2021/10/17 06:24:58;;;;;;;12.23;4.78;;;;;;;;;;4994829;28;20037;-70
2021/10/17 06:27:24;;;;;;;19.35;5.95;;;;;;;;;;5006228;28;20037;-70
2021/10/17 06:29:50;;;;;;;11.73;4.95;;;;;;;;;;4997937;28;20038;-70
2021/10/17 06:32:16;;;;;;;13.75;5.32;;;;;;;;;;5004273;28;20072;-71
2021/10/17 06:34:42;;;;;;;12.70;5.70;;;;;;;;;;5004674;28;20064;-70
2021/10/17 06:37:08;;;;;;;14.93;6.78;;;;;;;;;;4994202;28;20033;-70
2021/10/17 06:39:34;;;;;;;16.08;6.95;;;;;;;;;;4993220;28;20447;-70
2021/10/17 06:42:00;;;;;;;12.43;5.75;;;;;;;;;;4996053;28;20023;-70
2021/10/17 06:44:26;;;;;;;14.73;6.03;;;;;;;;;;5002893;28;20509;-71
2021/10/17 06:46:52;;;;;;;14.50;5.80;;;;;;;;;;4998571;28;20034;-70
2021/10/17 06:49:18;;;;;;;16.67;5.65;;;;;;;;;;5006319;28;20026;-73
2021/10/17 06:51:44;;;;;;;14.63;5.13;;;;;;;;;;4995941;28;20030;-70
2021/10/17 06:54:10;;;;;;;17.52;4.70;;;;;;;;;;5000571;28;20030;-71
2021/10/17 06:56:36;;;;;;;10.38;5.60;;;;;;;;;;5006209;28;20463;-70
2021/10/17 06:59:02;;;;;;;11.45;5.10;;;;;;;;;;4999526;28;20522;-70
2021/10/17 07:01:28;;;;;;;17.02;5.68;;;;;;;;;;5005256;28;20038;-70
2021/10/17 07:03:54;;;;;;;15.52;6.65;;;;;;;;;;5006060;28;20159;-70
2021/10/17 07:06:20;;;;;;;15.30;6.82;;;;;;;;;;4993859;28;20474;-70
2021/10/17 07:08:46;;;;;;;18.38;5.10;;;;;;;;;;4985348;28;20018;-70
2021/10/17 07:11:12;;;;;;;15.07;5.20;;;;;;;;;;4987577;28;20030;-71
2021/10/17 07:13:38;;;;;;;11.07;4.93;;;;;;;;;;4993459;28;20521;-71
2021/10/17 07:16:04;;;;;;;12.68;4.93;;;;;;;;;;5002503;28;20048;-70
2021/10/17 07:18:30;;;;;;;13.73;6.85;;;;;;;;;;5003297;28;20473;-70
2021/10/17 07:20:56;;;;;;;14.00;5.15;;;;;;;;;;4990599;28;20057;-70
2021/10/17 07:23:22;;;;;;;20.17;6.85;;;;;;;;;;4986333;28;20014;-70
2021/10/17 07:25:48;;;;;;;17.15;5.15;;;;;;;;;;4989810;28;20496;-70
2021/10/17 07:28:14;;;;;;;10.40;4.55;;;;;;;;;;4979919;28;20026;-70
2021/10/17 07:30:40;;;;;;;13.52;4.72;;;;;;;;;;4998073;28;20387;-71
2021/10/17 07:33:06;;;;;;;12.48;4.53;;;;;;;;;;4991609;28;20442;-70
2021/10/17 07:35:32;;;;;;;11.27;4.97;;;;;;;;;;4996354;28;20426;-70
2021/10/17 07:38:00;;;;;;;11.45;4.53;;;;;;;;;;4994066;28;20030;-70
2021/10/17 07:40:26;;;;;;;14.15;5.03;;;;;;;;;;4994911;28;21688;-70
2021/10/17 07:42:52;;;;;;;16.65;4.80;;;;;;;;;;4993466;28;20034;-70
2021/10/17 07:45:18;;;;;;;8.18;4.40;;;;;;;;;;4992353;28;20497;-70
2021/10/17 07:47:44;;;;;;;10.73;4.53;;;;;;;;;;4994436;28;20471;-71
2021/10/17 07:50:10;;;;;;;12.07;4.55;;;;;;;;;;4992393;28;20033;-71
2021/10/17 07:52:36;;;;;;;11.90;5.43;;;;;;;;;;4991472;28;20030;-70
2021/10/17 07:55:03;;;;;;;17.27;5.53;;;;;;;;;;4993140;28;20022;-70
2021/10/17 07:57:29;;;;;;;15.73;5.30;;;;;;;;;;4992590;28;20022;-70
2021/10/17 07:59:55;;;;;;;15.75;5.13;;;;;;;;;;4995388;28;20033;-70
2021/10/17 08:02:21;;;;;;;12.52;4.25;;;;;;;;;;4992021;28;20049;-71
2021/10/17 08:04:49;;;;;;;14.00;5.43;;;;;;;;;;4991172;28;20123;-71
2021/10/17 08:07:17;;;;;;;13.38;4.78;;;;;;;;;;4992304;28;20018;-70
2021/10/17 08:09:43;;;;;;;11.48;4.60;;;;;;;;;;4992792;28;20018;-71
2021/10/17 08:12:09;;;;;;;13.23;5.00;;;;;;;;;;4990852;28;20018;-70
2021/10/17 08:14:35;;;;;;;12.90;4.72;;;;;;;;;;4990075;28;20031;-70
2021/10/17 08:17:01;;;;;;;12.57;5.57;;;;;;;;;;4991137;28;20068;-70
2021/10/17 08:19:27;;;;;;;11.77;5.28;;;;;;;;;;4993746;28;20041;-70
2021/10/17 08:21:53;;;;;;;20.40;5.70;;;;;;;;;;4992706;28;20022;-70
2021/10/17 08:24:18;;;;;;;15.30;6.50;;;;;;;;;;4990396;28;20118;-71
2021/10/17 08:26:44;;;;;;;18.73;6.45;;;;;;;;;;4988756;28;20040;-71
2021/10/17 08:29:12;;;;;;;15.32;5.43;;;;;;;;;;4992887;28;20048;-71
2021/10/17 08:31:38;;;;;;;15.07;5.68;;;;;;;;;;4990609;28;20102;-71
2021/10/17 08:34:04;;;;;;;15.85;5.32;;;;;;;;;;4986886;28;20121;-70
2021/10/17 08:36:29;;;;;;;12.05;5.68;;;;;;;;;;4990803;28;20068;-71
2021/10/17 08:38:55;;;;;;;11.90;5.15;;;;;;;;;;4990456;28;20105;-70
2021/10/17 08:41:21;;;;;;;25.13;6.32;;;;;;;;;;4990485;28;20507;-70
2021/10/17 08:43:47;;;;;;;11.23;5.03;;;;;;;;;;4991037;28;20037;-71
2021/10/17 08:46:13;;;;;;;13.63;4.85;;;;;;;;;;4991613;28;20026;-70
2021/10/17 08:48:42;;;;;;;10.43;5.13;;;;;;;;;;4990217;28;20026;-70
2021/10/17 08:51:08;;;;;;;16.05;5.55;;;;;;;;;;4995313;28;20057;-70
2021/10/17 08:53:34;;;;;;;14.27;7.13;;;;;;;;;;4990892;28;20109;-71
2021/10/17 08:56:00;;;;;;;12.35;5.90;;;;;;;;;;4990716;28;20547;-70
2021/10/17 08:58:26;;;;;;;15.60;5.13;;;;;;;;;;4990316;28;20019;-71
2021/10/17 09:00:53;;;;;;;20.02;6.40;;;;;;;;;;4990725;28;20029;-71
2021/10/17 09:03:32;;;;;;;10.27;4.82;;;;;;;;;;4988997;28;20019;-71
2021/10/17 09:05:58;;;;;;;12.03;4.83;;;;;;;;;;4991702;28;20040;-70
2021/10/17 09:08:28;;;;;;;13.00;5.25;;;;;;;;;;4992749;28;20026;-71
2021/10/17 09:10:54;;;;;;;14.25;5.07;;;;;;;;;;4993906;28;20062;-71
2021/10/17 09:13:20;;;;;;;12.23;4.70;;;;;;;;;;4982786;28;20042;-70
2021/10/17 09:15:45;;;;;;;11.20;5.57;;;;;;;;;;4993495;28;20034;-70
2021/10/17 09:18:19;;;;;;;8.70;4.35;;;;;;;;;;4989974;28;20125;-71
2021/10/17 09:20:47;;;;;;;13.60;5.13;;;;;;;;;;4992310;28;20036;-71
2021/10/17 09:23:15;;;;;;;15.25;5.22;;;;;;;;;;4990240;28;20023;-71
2021/10/17 09:25:41;;;;;;;8.50;3.80;;;;;;;;;;4992103;28;20701;-71
2021/10/17 09:28:17;;;;;;;13.77;3.75;;;;;;;;;;4989305;28;20039;-71
2021/10/17 09:30:56;;;;;;;16.45;5.43;;;;;;;;;;4994382;28;20089;-71
2021/10/17 09:33:22;;;;;;;15.93;5.28;;;;;;;;;;4993222;28;20110;-71
2021/10/17 09:35:48;;;;;;;6.68;3.40;;;;;;;;;;5004388;23;20559;-73
2021/10/17 09:38:18;;;;;;;9.00;3.88;;;;;;;;;;4966794;28;20033;-73
2021/10/17 09:40:46;;;;;;;10.20;4.22;;;;;;;;;;4973358;28;20018;-73
2021/10/17 09:43:33;;;;;;;14.32;4.63;;;;;;;;;;4968450;28;20081;-74
2021/10/17 09:46:09;;;;;;;8.77;3.65;;;;;;;;;;4960733;28;20035;-74
2021/10/17 09:48:35;;;;;;;9.80;3.65;;;;;;;;;;4969191;28;20031;-74
2021/10/17 09:51:02;;;;;;;17.92;4.20;;;;;;;;;;4964800;28;20042;-74
2021/10/17 09:53:41;;;;;;;9.48;4.10;;;;;;;;;;4957003;28;20058;-72
2021/10/17 09:56:08;;;;;;;9.75;4.47;;;;;;;;;;4962484;28;20023;-72
2021/10/17 09:58:34;;;;;;;11.30;4.35;;;;;;;;;;4961024;28;20022;-73
2021/10/17 10:01:00;;;;;;;10.07;3.80;;;;;;;;;;4955917;28;20103;-71
2021/10/17 10:03:27;;;;;;;11.20;4.75;;;;;;;;;;4963827;28;20027;-71
2021/10/17 10:05:54;;;;;;;10.88;4.45;;;;;;;;;;4965193;28;20035;-71
2021/10/17 10:08:21;;;;;;;9.45;3.95;;;;;;;;;;4959563;28;20025;-70
2021/10/17 10:10:49;;;;;;;9.57;4.43;;;;;;;;;;4956558;28;20020;-70
2021/10/17 10:13:15;;;;;;;9.05;3.33;;;;;;;;;;4961896;28;20027;-70
2021/10/17 10:15:44;;;;;;;14.77;3.92;;;;;;;;;;4963887;28;20034;-70
2021/10/17 10:18:11;;;;;;;8.80;3.90;;;;;;;;;;4960086;28;20113;-70
2021/10/17 10:20:37;;;;;;;13.88;4.10;;;;;;;;;;4958636;28;20039;-70
2021/10/17 10:23:06;;;;;;;8.82;3.47;;;;;;;;;;4960444;28;20031;-70
2021/10/17 10:25:32;;;;;;;6.73;3.70;;;;;;;;;;4953720;28;20039;-70
2021/10/17 10:27:59;;;;;;;25.73;3.63;;;;;;;;;;4959896;28;20034;-73
2021/10/17 10:30:27;;;;;;;6.80;3.28;;;;;;;;;;4959155;28;20034;-71
2021/10/17 10:33:11;;;;;;;7.22;3.90;;;;;;;;;;4956992;28;20047;-70
2021/10/17 10:35:37;;;;;;;8.95;4.20;;;;;;;;;;4952080;28;20117;-71
2021/10/17 10:38:03;;;;;;;11.52;3.00;;;;;;;;;;4950023;28;20491;-71
2021/10/17 10:40:29;;;;;;;7.05;3.00;;;;;;;;;;4942937;28;20036;-71
2021/10/17 10:42:55;;;;;;;10.50;3.38;;;;;;;;;;4951785;28;20381;-70
2021/10/17 10:45:37;;;;;;;10.38;3.70;;;;;;;;;;4953783;28;20038;-71
2021/10/17 10:48:06;;;;;;;5.13;3.17;;;;;;;;;;4957639;28;20039;-71
2021/10/17 10:50:37;;;;;;;5.82;2.15;;;;;;;;;;4952075;28;20024;-70
2021/10/17 10:53:03;;;;;;;11.10;4.05;;;;;;;;;;4955340;28;20035;-70
2021/10/17 10:55:48;;;;;;;11.18;4.13;;;;;;;;;;4956951;28;20034;-70
2021/10/17 10:58:27;;;;;;;8.25;2.65;;;;;;;;;;4952640;28;20023;-71
2021/10/17 11:00:54;;;;;;;5.88;2.85;;;;;;;;;;4955426;28;20028;-70
2021/10/17 11:03:20;;;;;;;7.35;2.80;;;;;;;;;;4954181;28;20023;-71
2021/10/17 11:06:13;;;;;;;9.73;2.90;;;;;;;;;;4958452;28;20114;-71
2021/10/17 11:08:40;;;;;;;10.50;3.17;;;;;;;;;;4952370;28;20049;-71
2021/10/17 11:11:07;;;;;;;8.10;3.38;;;;;;;;;;4956285;28;20366;-71
2021/10/17 11:13:43;;;;;;;6.97;2.85;;;;;;;;;;4961775;28;20035;-71
2021/10/17 11:16:10;;;;;;;10.00;3.25;;;;;;;;;;4955080;28;20035;-71
2021/10/17 11:18:37;;;;;;;7.45;2.72;;;;;;;;;;4959764;28;20023;-71
2021/10/17 11:21:04;;;;;;;5.40;2.90;;;;;;;;;;4962186;28;20379;-71
2021/10/17 11:23:33;;;;;;;8.10;2.65;;;;;;;;;;4958427;28;20477;-71
2021/10/17 11:26:00;;;;;;;8.18;3.08;;;;;;;;;;4962031;28;21010;-71
2021/10/17 11:28:27;;;;;;;6.20;2.67;;;;;;;;;;4956709;28;20023;-71
2021/10/17 11:31:13;;;;;;;6.75;3.40;;;;;;;;;;4970109;28;20035;-71
2021/10/17 11:33:40;;;;;;;8.35;2.80;;;;;;;;;;4954353;28;20034;-71
2021/10/17 11:36:08;;;;;;;8.15;2.55;;;;;;;;;;4959788;28;20395;-70
2021/10/17 11:38:34;;;;;;;8.63;2.72;;;;;;;;;;4955003;28;20019;-71
2021/10/17 11:41:05;;;;;;;9.57;2.83;;;;;;;;;;4964223;28;20563;-71
2021/10/17 11:43:35;;;;;;;10.95;2.92;;;;;;;;;;4962527;28;20042;-71
2021/10/17 11:46:02;;;;;;;7.95;3.00;;;;;;;;;;4966949;28;20082;-71
2021/10/17 11:48:28;;;;;;;6.93;3.17;;;;;;;;;;4944643;28;20042;-71
2021/10/17 11:50:55;;;;;;;8.77;3.28;;;;;;;;;;4954680;28;20027;-71
2021/10/17 11:53:22;;;;;;;7.50;3.10;;;;;;;;;;4938646;28;20146;-71
2021/10/17 11:55:50;;;;;;;6.68;2.40;;;;;;;;;;4957828;28;20051;-71
2021/10/17 11:58:42;;;;;;;7.07;3.10;;;;;;;;;;4947533;28;20020;-71
2021/10/17 12:01:09;;;;;;;6.40;3.28;;;;;;;;;;4948658;28;20504;-71
2021/10/17 12:03:35;;;;;;;7.80;3.15;;;;;;;;;;4968254;28;20104;-71
2021/10/17 12:06:02;;;;;;;12.52;3.08;;;;;;;;;;4945765;28;20019;-71
2021/10/17 12:08:32;;;;;;;11.75;2.45;;;;;;;;;;4943437;28;20030;-72
2021/10/17 12:10:58;;;;;;;;;;;;;;;;;;4941260;28;20474;-71
2021/10/17 12:13:24;;;;;;;4.00;2.20;;;;;;;;;;4952211;28;19907;-71
2021/10/17 12:16:01;;;;;;;7.10;2.95;;;;;;;;;;4950399;28;20034;-71
2021/10/17 12:18:27;;;;;;;5.78;2.20;;;;;;;;;;4971122;28;20459;-71
2021/10/17 12:20:53;;;;;;;5.90;2.55;;;;;;;;;;4946754;28;20047;-71
2021/10/17 12:23:22;;;;;;;6.20;2.25;;;;;;;;;;4947133;28;20143;-71
2021/10/17 12:25:48;;;;;;;5.10;2.97;;;;;;;;;;4946840;28;20039;-71
2021/10/17 12:28:18;;;;;;;7.90;3.17;;;;;;;;;;4944870;28;20046;-71
2021/10/17 12:30:47;;;;;;;11.13;3.67;;;;;;;;;;4950137;28;20114;-71
2021/10/17 12:33:23;;;;;;;9.68;4.38;;;;;;;;;;4951584;28;20074;-71
2021/10/17 12:35:49;;;;;;;11.63;3.65;;;;;;;;;;4952295;28;20054;-72
2021/10/17 12:38:17;;;;;;;6.80;3.50;;;;;;;;;;4959609;28;20019;-71
2021/10/17 12:40:53;;;;;;;9.38;3.45;;;;;;;;;;4957546;28;20022;-71
2021/10/17 12:43:23;;;;;;;10.55;4.53;;;;;;;;;;4954945;28;20066;-71
2021/10/17 12:45:49;;;;;;;9.60;3.67;;;;;;;;;;4956342;28;20046;-72
2021/10/17 12:48:17;;;;;;;12.30;4.05;;;;;;;;;;4958618;28;20033;-72
2021/10/17 12:50:44;;;;;;;10.30;3.72;;;;;;;;;;4953913;28;20392;-72
2021/10/17 12:53:12;;;;;;;12.27;5.05;;;;;;;;;;4950966;28;20028;-72
2021/10/17 12:55:40;;;;;;;11.32;4.93;;;;;;;;;;4949934;28;20047;-72
2021/10/17 12:58:13;;;;;;;9.38;4.90;;;;;;;;;;4951851;28;20058;-72
2021/10/17 13:00:40;;;;;;;8.80;4.70;;;;;;;;;;4949341;28;20027;-72
2021/10/17 13:03:17;;;;;;;8.77;4.90;;;;;;;;;;4951437;28;20106;-72
2021/10/17 13:05:53;;;;;;;11.10;4.90;;;;;;;;;;4951226;28;20026;-72
2021/10/17 13:08:20;;;;;;;8.70;5.00;;;;;;;;;;4946416;28;20069;-73
2021/10/17 13:10:46;;;;;;;11.13;5.50;;;;;;;;;;4948105;28;20272;-73
2021/10/17 13:13:17;;;;;;;14.23;5.95;;;;;;;;;;4944693;28;20023;-73
2021/10/17 13:15:44;;;;;;;17.38;6.75;;;;;;;;;;4959934;28;20026;-73
2021/10/17 13:18:10;;;;;;;13.80;6.65;;;;;;;;;;4953004;28;20054;-73
2021/10/17 13:20:38;;;;;;;15.75;6.45;;;;;;;;;;4955061;28;20063;-73
2021/10/17 13:23:05;;;;;;;12.65;6.13;;;;;;;;;;4952478;28;20030;-73
2021/10/17 13:25:31;;;;;;;13.70;5.80;;;;;;;;;;4948699;28;20110;-73
2021/10/17 13:27:59;;;;;;;12.70;5.95;;;;;;;;;;4971101;28;20066;-73
2021/10/17 13:30:25;;;;;;;19.60;8.43;;;;;;;;;;4954095;28;20023;-73
2021/10/17 13:32:51;;;;;;;19.38;7.80;;;;;;;;;;4967224;28;20042;-73
2021/10/17 13:35:17;;;;;;;18.15;8.82;;;;;;;;;;4950909;28;20492;-74
2021/10/17 13:37:44;;;;;;;10.93;6.13;;;;;;;;;;4943500;28;20027;-72
2021/10/17 13:40:11;;;;;;;14.77;8.70;;;;;;;;;;4942272;28;20099;-72
2021/10/17 13:42:38;;;;;;;11.48;6.80;;;;;;;;;;4952758;28;20026;-73
2021/10/17 13:45:04;;;;;;;15.88;8.15;;;;;;;;;;4947026;28;20028;-72
2021/10/17 13:47:30;;;;;;;17.88;7.45;;;;;;;;;;4950969;28;20110;-72
2021/10/17 13:49:56;;;;;;;15.30;7.30;;;;;;;;;;4948353;28;20487;-72
2021/10/17 13:52:22;;;;;;;11.88;6.45;;;;;;;;;;4956813;28;20542;-73
2021/10/17 13:54:48;;;;;;;32.30;19.13;;;;;;;;;;4950479;28;20071;-73
2021/10/17 13:57:14;;;;;;;15.00;8.23;;;;;;;;;;4952111;28;20019;-73
2021/10/17 13:59:40;;;;;;;10.88;6.70;;;;;;;;;;4945033;28;20464;-73
2021/10/17 14:02:06;;;;;;;8.98;5.70;;;;;;;;;;4950061;28;20022;-72
2021/10/17 14:04:32;;;;;;;12.25;6.10;;;;;;;;;;4952912;28;20860;-72
2021/10/17 14:06:58;;;;;;;14.75;8.25;;;;;;;;;;4947107;28;20051;-72
2021/10/17 14:09:24;;;;;;;16.90;8.32;;;;;;;;;;4947643;28;20027;-72
2021/10/17 14:11:50;;;;;;;18.20;7.40;;;;;;;;;;4948877;28;20031;-72
2021/10/17 14:14:17;;;;;;;15.45;9.63;;;;;;;;;;4953424;28;20027;-72
2021/10/17 14:16:43;;;;;;;15.82;6.97;;;;;;;;;;4959630;28;20078;-72
2021/10/17 14:19:09;;;;;;;12.18;7.07;;;;;;;;;;4962557;28;20050;-72
2021/10/17 14:21:34;;;;;;;20.88;8.00;;;;;;;;;;4953711;28;20030;-72
2021/10/17 14:24:01;;;;;;;17.20;8.82;;;;;;;;;;4968477;28;20733;-71
2021/10/17 14:26:27;;;;;;;18.25;7.95;;;;;;;;;;4953763;28;20035;-72
2021/10/17 14:28:53;;;;;;;9.60;5.38;;;;;;;;;;4958221;28;20033;-72
2021/10/17 14:31:19;;;;;;;11.93;5.80;;;;;;;;;;4959601;28;20027;-72
2021/10/17 14:33:45;;;;;;;12.73;5.78;;;;;;;;;;4952146;28;20430;-72